Flight Track Log - Related Links

Times and Time Zones

All times are in EDT time to prevent confusion due to time zone crossing. See the QFA982 flight status page for this flight to view local times or setup timezone preferences in your user account.

Time Position Orientation Groundspeed Altitude Reporting Facility
EDT Latitude Longitude Course Direction KTS MPH feet Rate Location/Type
Sat 11:05:21 PM -23.8293 133.9899 282° West 15,000  Level Aus ATC (Calculated)
Sat 11:05:27 PM -23.8160 133.9200 126° Southeast 164 189 2,200 -23,032 Descending FlightAware ADS-B
Sat 11:05:52 PM -23.8260 133.9390 126° Southeast 177 204 3,100 1,855 Climbing FlightAware ADS-B
Sat 11:06:21 PM -23.8698 134.1624 280° West 15,000 1,600 Climbing Aus ATC (Calculated)
Sat 11:06:22 PM -23.8390 133.9640 120° Southeast 215 247 3,900 -19,161 Descending FlightAware ADS-B
Sat 11:06:38 PM -23.8698 134.1624 276° West 15,000 2,400 Climbing Aus ATC (Calculated)
Sat 11:06:52 PM -23.8530 133.9920 120° Southeast 230 265 5,100 -23,750 Descending FlightAware ADS-B
Sat 11:07:02 PM -23.8590 134.0050 120° Southeast 247 284 5,500 2,250 Climbing FlightAware ADS-B
Sat 11:07:32 PM -23.8730 134.0430 112° Southeast 274 315 6,600 2,509 Climbing FlightAware ADS-B
Sat 11:07:42 PM -23.9076 134.3242 276° West 15,000 2,880 Climbing Aus ATC (Calculated)
Sat 11:07:57 PM -23.8820 134.0780 112° Southeast 282 325 7,800 -8,133 Descending FlightAware ADS-B
Sat 11:08:15 PM -23.9253 134.4001 278° West 15,000 2,200 Climbing Aus ATC (Calculated)
Sat 11:08:27 PM -23.8890 134.1210 112° Southeast 306 352 8,900 -4,737 Descending FlightAware ADS-B
Sat 11:09:12 PM -23.8930 134.1960 93° East 342 394 10,500 2,188 Climbing FlightAware ADS-B
Sat 11:09:21 PM -23.9594 134.5472 286° West 15,000 2,250 Climbing Aus ATC (Calculated)
Sat 11:09:52 PM -23.8870 134.2660 93° East 362 417 12,000 -1,183 Descending FlightAware ADS-B
Sat 11:10:30 PM -23.9908 134.6830 285° West 15,000 2,400 Climbing Aus ATC (Calculated)
Sat 11:10:32 PM -23.9030 134.3380 104° East 376 433 13,600 -894 Descending FlightAware ADS-B
Sat 11:11:15 PM -24.0206 134.8125 285° West 15,000 933 Climbing Aus ATC (Calculated)
Sat 11:11:17 PM -23.9230 134.4220 104° East 419 482 14,300 -143 Descending FlightAware ADS-B
Sat 11:11:57 PM -23.9430 134.5090 104° East 423 487 14,900 525 Climbing FlightAware ADS-B
Sat 11:12:37 PM -23.9620 134.5900 104° East 422 486 15,000 71 Climbing FlightAware ADS-B
Sat 11:12:40 PM -24.0623 134.9947 285° West 15,000  Level Aus ATC (Calculated)
Sat 11:13:00 PM -24.0749 135.0498 285° West 15,000  Level Aus ATC (Calculated)
Sat 11:13:22 PM -23.9840 134.6840 104° East 419 482 15,000 290 Level FlightAware ADS-B
Sat 11:13:47 PM -24.0871 135.1032 285° West 15,000 450 Level Aus ATC (Calculated)
Sat 11:14:02 PM -24.0030 134.7660 104° East 417 480 15,300 2,800 Climbing FlightAware ADS-B
Sat 11:14:23 PM -24.0871 135.1032 286° West 15,000 3,333 Descending Aus ATC (Calculated)
Sat 11:14:47 PM -24.0240 134.8570 104° East 396 456 17,800 3,844 Climbing FlightAware ADS-B
Sat 11:14:50 PM -24.1106 135.2066 285° West 15,000 1,950 Descending Aus ATC (Calculated)
Sat 11:15:27 PM -24.0420 134.9340 104° East 411 473 19,100 4,098 Climbing FlightAware ADS-B
Sat 11:16:12 PM -24.0640 135.0260 104° East 429 494 20,600 2,047 Climbing FlightAware ADS-B
Sat 11:16:32 PM -24.1545 135.4006 285° West 15,000 2,100 Descending Aus ATC (Calculated)
Sat 11:16:40 PM -24.1545 135.4006 285° West 15,000 21,000 Level Aus ATC (Calculated)
Sat 11:16:52 PM -24.0850 135.1170 104° East 443 510 22,000 9,577 Climbing FlightAware ADS-B
Sat 11:17:32 PM -24.1050 135.2030 104° East 454 522 23,300 1,976 Climbing FlightAware ADS-B
Sat 11:17:44 PM -24.1915 135.5651 285° West 15,000 2,000 Descending Aus ATC (Calculated)
Sat 11:17:54 PM -24.1915 135.5651 285° West 15,000 17,818 Level Aus ATC (Calculated)
Sat 11:18:17 PM -24.1270 135.3030 104° East 463 533 24,800 10,381 Climbing FlightAware ADS-B
Sat 11:18:57 PM -24.1480 135.3930 104° East 473 544 25,900 1,725 Climbing FlightAware ADS-B
Sat 11:19:06 PM -24.2395 135.7799 285° West 15,000 1,800 Descending Aus ATC (Calculated)
Sat 11:19:34 PM -24.2531 135.8412 285° West 15,000 23,419 Level Aus ATC (Calculated)
Sat 11:19:37 PM -24.1700 135.4910 104° East 483 556 27,100 16,375 Climbing FlightAware ADS-B
Sat 11:20:19 PM -24.2786 135.9562 284° West 15,000 1,333 Descending Aus ATC (Calculated)
Sat 11:20:22 PM -24.1940 135.5970 104° East 495 570 28,100 19,674 Climbing FlightAware ADS-B
Sat 11:21:02 PM -24.2170 135.6990 104° East 504 580 29,100 1,482 Climbing FlightAware ADS-B
Sat 11:21:17 PM -24.3008 136.0568 284° West 15,000 1,467 Descending Aus ATC (Calculated)
Sat 11:21:47 PM -24.2430 135.8120 104° East 511 588 30,200 13,800 Climbing FlightAware ADS-B
Sat 11:22:27 PM -24.2650 135.9070 104° East 516 594 31,100 1,341 Climbing FlightAware ADS-B
Sat 11:23:12 PM -24.2900 136.0220 103° East 522 601 32,100 1,200 Climbing FlightAware ADS-B
Sat 11:23:14 PM -24.3588 136.3211 284° West 15,000 1,050 Descending Aus ATC (Calculated)
Sat 11:23:52 PM -24.3140 136.1290 103° East 530 610 32,800 14,308 Climbing FlightAware ADS-B
Sat 11:24:32 PM -24.3380 136.2350 104° East 536 617 33,600 1,271 Climbing FlightAware ADS-B
Sat 11:25:17 PM -24.3640 136.3540 104° East 537 618 34,600 1,412 Climbing FlightAware ADS-B
Sat 11:25:57 PM -24.3880 136.4610 104° East 532 612 35,600 1,425 Climbing FlightAware ADS-B
Sat 11:26:27 PM -24.4669 136.8190 284° West 15,000 1,350 Descending Aus ATC (Calculated)
Sat 11:26:37 PM -24.4090 136.5570 104° East 528 608 36,500 24,000 Climbing FlightAware ADS-B
Sat 11:26:41 PM -24.4792 136.8758 283° West 15,000 667 Descending Aus ATC (Calculated)
Sat 11:27:22 PM -24.4360 136.6770 104° East 527 606 37,000 16,296 Climbing FlightAware ADS-B
Sat 11:27:53 PM -24.5161 137.0462 283° West 15,000  Descending Aus ATC (Calculated)
Sat 11:28:02 PM -24.4600 136.7850 104° East 528 608 37,000 24,444 Climbing FlightAware ADS-B
Sat 11:28:47 PM -24.4830 136.8920 104° East 527 606 37,000  Level FlightAware ADS-B
Sat 11:29:24 PM -24.5651 137.2736 283° West 15,000  Descending Aus ATC (Calculated)
Sat 11:29:27 PM -24.5050 136.9960 103° East 527 606 37,000 28,250 Climbing FlightAware ADS-B
Sat 11:30:05 PM -24.5894 137.3874 283° West 15,000 800 Descending Aus ATC (Calculated)
Sat 11:30:12 PM -24.5310 137.1140 103° East 525 604 37,600 29,872 Climbing FlightAware ADS-B
Sat 11:30:52 PM -24.5530 137.2180 103° East 522 601 38,400 640 Climbing FlightAware ADS-B
Sat 11:31:27 PM -24.5710 137.3060 103° East 521 600 38,400 480 Level FlightAware ADS-B
Sat 11:32:07 PM -24.5960 137.4190 104° East 521 600 39,000 400 Climbing FlightAware ADS-B
Sat 11:32:57 PM -24.6240 137.5500 103° East 521 600 39,000  Level FlightAware ADS-B
Sat 11:33:03 PM -24.6841 137.8341 283° West 15,000  Descending Aus ATC (Calculated)
Sat 11:33:37 PM -24.6450 137.6500 103° East 522 601 39,000 18,228 Climbing FlightAware ADS-B
Sat 11:33:44 PM -24.7067 137.9422 283° West 15,000  Descending Aus ATC (Calculated)
Sat 11:34:22 PM -24.6680 137.7570 103° East 522 601 39,000 18,462 Climbing FlightAware ADS-B
Sat 11:35:02 PM -24.6860 137.8450 103° East 522 601 39,000  Level FlightAware ADS-B
Sat 11:35:42 PM -24.7050 137.9330 103° East 522 601 39,000  Level FlightAware ADS-B
Sat 11:36:22 PM -24.7230 138.0210 103° East 522 601 39,000  Level FlightAware ADS-B
Sat 11:37:02 PM -24.7420 138.1100 103° East 522 601 39,000  Level FlightAware ADS-B
Sat 11:37:52 PM -24.7650 138.2200 103° East 522 601 39,000  Level FlightAware ADS-B
Sat 11:38:32 PM -24.7830 138.3080 103° East 522 601 39,000  Level FlightAware ADS-B
Sat 11:38:39 PM -24.8522 138.6457 282° West 15,000  Descending Aus ATC (Calculated)
Sat 11:38:39 PM -24.8522 138.6457 282° West 15,000 43,636 Level Aus ATC (Calculated)
Sat 11:39:12 PM -24.8020 138.3960 103° East 522 601 39,000 19,726 Climbing FlightAware ADS-B
Sat 11:39:52 PM -24.8200 138.4840 103° East 522 601 39,000  Level FlightAware ADS-B
Sat 11:40:32 PM -24.8390 138.5720 103° East 522 601 39,000  Level FlightAware ADS-B
Sat 11:41:22 PM -24.8620 138.6820 103° East 522 601 39,000  Level FlightAware ADS-B
Sat 11:42:02 PM -24.8800 138.7710 103° East 522 601 39,000  Level FlightAware ADS-B
Sat 11:42:42 PM -24.8990 138.8590 103° East 522 601 39,000  Level FlightAware ADS-B
Sat 11:43:22 PM -24.9170 138.9470 103° East 522 601 39,000  Level FlightAware ADS-B
Sat 11:43:38 PM -24.9944 139.3509 282° West 15,000  Descending Aus ATC (Calculated)
Sat 11:44:02 PM -24.9350 139.0350 103° East 522 601 39,000 19,459 Climbing FlightAware ADS-B
Sat 11:44:52 PM -24.9590 139.1460 103° East 522 601 39,000  Level FlightAware ADS-B
Sat 11:45:32 PM -24.9770 139.2340 103° East 522 601 39,000  Level FlightAware ADS-B
Sat 11:46:12 PM -24.9960 139.3220 103° East 522 601 39,000  Level FlightAware ADS-B
Sat 11:46:52 PM -25.0140 139.4100 103° East 522 601 39,000  Level FlightAware ADS-B
Sat 11:47:32 PM -25.0320 139.4990 103° East 522 601 39,000  Level FlightAware ADS-B
Sat 11:48:22 PM -25.0560 139.6090 104° East 522 601 39,000  Level FlightAware ADS-B
Sat 11:48:38 PM -25.1333 140.0577 102° East 15,000  Descending Aus ATC (Calculated)
Sat 11:49:15 PM -25.1543 140.1666 102° East 15,000 3,137 Level Aus ATC (Calculated)
Sat 11:51:00 PM -25.2088 140.4501 102° East  Level FlightAware Approximate
Sat 11:52:00 PM -25.2397 140.6122 102° East  Level FlightAware Approximate
Sat 11:53:00 PM -25.2703 140.7744 102° East  Level FlightAware Approximate
Sat 11:53:38 PM -25.2790 140.8206 102° East 15,000  Level Aus ATC (Calculated)
Sat 11:54:00 PM -25.3009 140.9367 102° East  Level FlightAware Approximate
Sat 11:55:00 PM -25.3206 141.0424 102° East  Level FlightAware Approximate
Sat 11:56:00 PM -25.3509 141.2048 102° East  Level FlightAware Approximate
Sat 11:56:02 PM -25.3403 141.1481 102° East 15,000  Level Aus ATC (Calculated)
Sat 11:56:17 PM -25.3480 141.1880 102° East 529 609 39,000 26,182 Climbing FlightAware ADS-B
Sat 11:56:57 PM -25.3640 141.2820 102° East 529 609 39,000  Level FlightAware ADS-B
Sat 11:57:37 PM -25.3800 141.3720 101° East 529 609 39,000  Level FlightAware ADS-B
Sat 11:58:27 PM -25.4000 141.4850 101° East 529 609 39,000  Level FlightAware ADS-B
Sat 11:59:07 PM -25.4160 141.5760 101° East 529 609 39,000  Level FlightAware ADS-B
Sat 11:59:47 PM -25.4320 141.6660 101° East 529 609 39,000  Level FlightAware ADS-B
Sun 12:00:27 AM -25.4480 141.7570 101° East 529 609 39,000  Level FlightAware ADS-B
Sun 12:00:57 AM -25.4844 141.9359 100° East 15,000  Descending Aus ATC (Calculated)
Sun 12:01:07 AM -25.4890 141.9640 102° East 532 612 39,000 20,571 Climbing FlightAware ADS-B
Sun 12:02:07 AM -25.5140 142.1010 102° East 533 613 39,000  Level FlightAware ADS-B
Sun 12:02:47 AM -25.5300 142.1920 101° East 533 613 39,000  Level FlightAware ADS-B
Sun 12:03:27 AM -25.5460 142.2830 101° East 533 613 39,000  Level FlightAware ADS-B
Sun 12:04:17 AM -25.5770 142.4550 101° East 531 611 39,000  Level FlightAware ADS-B
Sun 12:04:57 AM -25.5930 142.5460 101° East 531 611 39,000  Level FlightAware ADS-B
Sun 12:05:21 AM -25.6045 142.6126 102° East 15,000  Descending Aus ATC (Calculated)
Sun 12:05:37 AM -25.6090 142.6370 101° East 531 611 39,000 25,714 Climbing FlightAware ADS-B
Sun 12:05:56 AM -25.6242 142.7255 109° East 15,000  Descending Aus ATC (Calculated)
Sun 12:06:17 AM -25.6250 142.7280 101° East 531 611 39,000 23,607 Climbing FlightAware ADS-B
Sun 12:06:57 AM -25.6400 142.8190 101° East 531 611 39,000  Level FlightAware ADS-B
Sun 12:07:47 AM -25.6600 142.9320 101° East 531 611 39,000  Level FlightAware ADS-B
Sun 12:08:27 AM -25.6760 143.0230 101° East 531 611 39,000  Level FlightAware ADS-B
Sun 12:09:07 AM -25.6920 143.1140 101° East 531 611 39,000  Level FlightAware ADS-B
Sun 12:09:47 AM -25.7080 143.2050 101° East 531 611 39,000  Level FlightAware ADS-B
Sun 12:10:27 AM -25.7240 143.2960 101° East 531 611 39,000  Level FlightAware ADS-B
Sun 12:10:56 AM -25.7598 143.5170 280° West 15,000  Descending Aus ATC (Calculated)
Sun 12:11:07 AM -25.7400 143.3870 101° East 531 611 39,000 20,282 Climbing FlightAware ADS-B
Sun 12:12:07 AM -25.7930 143.7130 101° East 531 611 39,000  Level FlightAware ADS-B
Sun 12:12:47 AM -25.8090 143.8040 101° East 531 611 39,000  Level FlightAware ADS-B
Sun 12:13:27 AM -25.8250 143.8950 101° East 531 611 39,000  Level FlightAware ADS-B
Sun 12:14:17 AM -25.8450 144.0090 101° East 531 611 39,000  Level FlightAware ADS-B
Sun 12:14:57 AM -25.8610 144.1000 101° East 531 611 39,000  Level FlightAware ADS-B
Sun 12:15:37 AM -25.8770 144.1910 101° East 531 611 39,000  Level FlightAware ADS-B
Sun 12:15:55 AM -25.8819 144.2534 113° Southeast 15,000  Descending Aus ATC (Calculated)
Sun 12:16:17 AM -25.8930 144.2830 101° East 531 611 39,000 23,226 Climbing FlightAware ADS-B
Sun 12:16:57 AM -25.9090 144.3740 101° East 531 611 39,000  Level FlightAware ADS-B
Sun 12:17:37 AM -25.9250 144.4650 101° East 531 611 39,000  Level FlightAware ADS-B
Sun 12:18:27 AM -25.9450 144.5790 101° East 531 611 39,000  Level FlightAware ADS-B
Sun 12:18:35 AM -25.9551 144.7074 262° West 15,000  Descending Aus ATC (Calculated)
Sun 12:19:07 AM -25.9600 144.6700 101° East 531 611 39,000 20,000 Climbing FlightAware ADS-B
Sun 12:19:47 AM -25.9760 144.7610 101° East 531 611 39,000  Level FlightAware ADS-B
Sun 12:20:27 AM -25.9920 144.8520 101° East 531 611 39,000  Level FlightAware ADS-B
Sun 12:21:17 AM -26.0120 144.9660 101° East 531 611 39,000 16 Level FlightAware ADS-B
Sun 12:22:04 AM -26.0329 145.2016 100° East 15,000 17 Descending Aus ATC (Calculated)
Sun 12:23:30 AM -26.0716 145.4518 100° East 15,000 2,269 Level Aus ATC (Calculated)
Sun 12:25:00 AM -26.1093 145.6986 100° East  Level FlightAware Approximate
Sun 12:26:00 AM -26.1343 145.8632 100° East  Level FlightAware Approximate
Sun 12:27:00 AM -26.1590 146.0279 100° East  Level FlightAware Approximate
Sun 12:27:28 AM -26.1571 146.0154 99° East 15,000  Level Aus ATC (Calculated)
Sun 12:28:29 AM -26.1851 146.2034 99° East 15,000 4,595 Level Aus ATC (Calculated)
Sun 12:30:00 AM -26.2219 146.4534 99° East  Level FlightAware Approximate
Sun 12:31:00 AM -26.2460 146.6183 99° East  Level FlightAware Approximate
Sun 12:32:00 AM -26.2698 146.7833 99° East  Level FlightAware Approximate
Sun 12:32:44 AM -26.3117 147.0764 99° East 544 626 39,200  Level Aus ATC (RADAR)
Sun 12:33:19 AM -26.3240 147.1715 98° East 535 616 39,200  Level Aus ATC (RADAR)
Sun 12:34:03 AM -26.3408 147.2952 99° East 538 619 39,200  Level Aus ATC (RADAR)
Sun 12:34:38 AM -26.3521 147.3898 98° East 535 616 39,200  Level Aus ATC (RADAR)
Sun 12:35:23 AM -26.3737 147.5174 101° East 549 632 39,200  Level Aus ATC (RADAR)
Sun 12:35:48 AM -26.3830 147.5867 99° East 545 627 39,200  Level Aus ATC (RADAR)
Sun 12:36:23 AM -26.3960 147.6830 99° East 541 623 39,200 -128 Level Aus ATC (RADAR)
Sun 12:37:22 AM -26.4110 147.7970 99° East 543 625 39,000  Descending FlightAware ADS-B
Sun 12:37:48 AM -26.4284 147.9174 99° East 539 620 39,200  Climbing Aus ATC (RADAR)
Sun 12:38:02 AM -26.4230 147.8910 99° East 543 625 39,000 -171 Descending FlightAware ADS-B
Sun 12:38:23 AM -26.4418 148.0137 99° East 538 619 39,100  Climbing Aus ATC (RADAR)
Sun 12:38:42 AM -26.4350 147.9850 99° East 543 625 39,000  Descending FlightAware ADS-B
Sun 12:39:18 AM -26.4620 148.1653 99° East 538 619 39,100  Climbing Aus ATC (RADAR)
Sun 12:39:22 AM -26.4470 148.0800 99° East 543 625 39,000  Descending FlightAware ADS-B
Sun 12:39:53 AM -26.4747 148.2612 99° East 535 616 39,100  Climbing Aus ATC (RADAR)
Sun 12:40:02 AM -26.4590 148.1740 99° East 543 625 39,000  Descending FlightAware ADS-B
Sun 12:40:38 AM -26.4914 148.3851 99° East 536 617 39,100  Climbing Aus ATC (RADAR)
Sun 12:40:52 AM -26.4740 148.2930 99° East 543 625 39,000 -111 Descending FlightAware ADS-B
Sun 12:41:32 AM -26.4860 148.3870 98° East 543 625 39,000  Level FlightAware ADS-B
Sun 12:42:12 AM -26.4970 148.4810 97° East 543 625 39,000 79 Level FlightAware ADS-B
Sun 12:42:48 AM -26.5378 148.7455 97° East 541 623 39,100  Climbing Aus ATC (RADAR)
Sun 12:42:52 AM -26.5090 148.5760 97° East 543 625 39,000  Descending FlightAware ADS-B
Sun 12:43:08 AM -26.5461 148.8009 97° East 540 621 39,100  Climbing Aus ATC (RADAR)
Sun 12:43:32 AM -26.5210 148.6710 97° East 543 625 39,000  Descending FlightAware ADS-B
Sun 12:43:47 AM -26.5687 148.9093 97° East 537 618 39,100  Climbing Aus ATC (RADAR)
Sun 12:44:22 AM -26.5360 148.7890 97° East 543 625 39,000 -80 Descending FlightAware ADS-B
Sun 12:45:02 AM -26.5480 148.8830 98° East 543 625 39,000  Level FlightAware ADS-B
Sun 12:45:42 AM -26.5600 148.9780 98° East 543 625 39,000 80 Level FlightAware ADS-B
Sun 12:46:17 AM -26.6518 149.3155 98° East 530 610 39,100  Climbing Aus ATC (RADAR)
Sun 12:46:22 AM -26.5720 149.0720 98° East 543 625 39,000  Descending FlightAware ADS-B
Sun 12:47:27 AM -26.6892 149.5023 98° East 521 600 39,100 67 Climbing Aus ATC (RADAR)
Sun 12:47:52 AM -26.7028 149.5693 103° East 525 604 39,100  Level Aus ATC (RADAR)
Sun 12:48:32 AM -26.7239 149.6766 102° East 527 606 39,100  Level Aus ATC (RADAR)
Sun 12:49:07 AM -26.7427 149.7703 103° East 527 606 39,100  Level Aus ATC (RADAR)
Sun 12:49:42 AM -26.7613 149.8643 103° East 527 606 39,100  Level Aus ATC (RADAR)
Sun 12:50:27 AM -26.7848 149.9848 102° East 526 605 39,100  Level Aus ATC (RADAR)
Sun 12:50:52 AM -26.7981 150.0518 103° East 526 605 39,100  Level Aus ATC (RADAR)
Sun 12:51:32 AM -26.8192 150.1594 102° East 528 608 39,100  Level Aus ATC (RADAR)
Sun 12:52:17 AM -26.8429 150.2800 102° East 527 606 39,100  Level Aus ATC (RADAR)
Sun 12:52:42 AM -26.8559 150.3478 102° East 529 609 39,100  Level Aus ATC (RADAR)
Sun 12:53:17 AM -26.8741 150.4426 102° East 532 612 39,100  Level Aus ATC (RADAR)
Sun 12:54:01 AM -26.8976 150.5647 102° East 535 616 39,100  Level Aus ATC (RADAR)
Sun 12:54:36 AM -26.9160 150.6598 102° East 533 613 39,100 -75 Level Aus ATC (RADAR)
Sun 12:55:21 AM -26.9392 150.7825 102° East 532 612 39,000  Descending Aus ATC (RADAR)
Sun 12:55:46 AM -26.9521 150.8507 102° East 533 613 39,100 100 Climbing Aus ATC (RADAR)
Sun 12:56:21 AM -26.9705 150.9461 102° East 532 612 39,100  Level Aus ATC (RADAR)
Sun 12:57:31 AM -27.0068 151.1369 102° East 532 612 39,100  Level Aus ATC (RADAR)
Sun 12:57:56 AM -27.0189 151.2051 101° East 532 612 39,100 -600 Level Aus ATC (RADAR)
Sun 12:58:31 AM -27.0365 151.2998 102° East 525 604 38,500 -1,835 Descending Aus ATC (RADAR)
Sun 12:59:21 AM -27.0651 151.4337 104° East 524 603 36,500 -1,765 Descending Aus ATC (RADAR)
Sun 12:59:56 AM -27.0988 151.5135 115° Southeast 484 557 36,000 -988 Descending Aus ATC (RADAR)
Sun 01:00:46 AM -27.1524 151.6130 121° Southeast 440 506 35,100 -1,200 Descending Aus ATC (RADAR)
Sun 01:01:11 AM -27.1773 151.6615 120° Southeast 428 493 34,500 -1,600 Descending Aus ATC (RADAR)
Sun 01:01:46 AM -27.2122 151.7285 120° Southeast 419 482 33,500 -1,800 Descending Aus ATC (RADAR)
Sun 01:03:01 AM -27.2865 151.8704 121° Southeast 409 471 31,200 -1,740 Descending Aus ATC (RADAR)
Sun 01:03:26 AM -27.3109 151.9167 121° Southeast 400 460 30,600 -1,500 Descending Aus ATC (RADAR)
Sun 01:04:01 AM -27.3441 151.9815 120° Southeast 400 460 29,700 -1,595 Descending Aus ATC (RADAR)
Sun 01:04:45 AM -27.3862 152.0630 120° Southeast 392 451 28,500 -1,595 Descending Aus ATC (RADAR)
Sun 01:05:20 AM -27.4182 152.1246 120° Southeast 380 437 27,600 -1,440 Descending Aus ATC (RADAR)
Sun 01:06:00 AM -27.4539 152.1947 120° Southeast 375 432 26,700 -1,385 Descending Aus ATC (RADAR)
Sun 01:06:25 AM -27.4761 152.2376 120° Southeast 374 430 26,100 -733 Descending Aus ATC (RADAR)
Sun 01:07:30 AM -27.5343 152.3489 121° Southeast 373 429 25,600 -467 Descending Aus ATC (RADAR)
Sun 01:07:55 AM -27.5564 152.3918 120° Southeast 372 428 25,400 -480 Descending Aus ATC (RADAR)
Sun 01:08:20 AM -27.5781 152.4353 119° Southeast 374 430 25,200 -400 Descending Aus ATC (RADAR)
Sun 01:08:55 AM -27.6202 152.4736 141° Southeast 329 379 25,000 -494 Descending Aus ATC (RADAR)
Sun 01:09:45 AM -27.6837 152.4723 181° South 266 306 24,500 -565 Descending Aus ATC (RADAR)
Sun 01:10:20 AM -27.7168 152.4483 213° Southwest 248 285 24,200 -450 Descending Aus ATC (RADAR)
Sun 01:11:05 AM -27.7402 152.4023 240° Southwest 233 268 23,900 -514 Descending Aus ATC (RADAR)
Sun 01:11:30 AM -27.7437 152.3723 263° West 235 270 23,600 -560 Descending Aus ATC (RADAR)
Sun 01:12:20 AM -27.7240 152.3112 290° West 254 292 23,200 -480 Descending Aus ATC (RADAR)
Sun 01:12:45 AM -27.7076 152.2820 303° West 261 300 23,000 -480 Descending Aus ATC (RADAR)
Sun 01:13:10 AM -27.6926 152.2522 300° West 259 298 22,800 -469 Descending Aus ATC (RADAR)
Sun 01:13:49 AM -27.6679 152.2044 300° West 261 300 22,500 -494 Descending Aus ATC (RADAR)
Sun 01:14:35 AM -27.6404 152.1511 300° West 260 299 22,100 -525 Descending Aus ATC (RADAR)
Sun 01:15:09 AM -27.6186 152.1096 301° West 260 299 21,800 -456 Descending Aus ATC (RADAR)
Sun 01:15:54 AM -27.5668 152.0711 327° Northwest 300 345 21,500 -429 Descending Aus ATC (RADAR)
Sun 01:16:19 AM -27.5223 152.0732 North 345 397 21,300 -400 Descending Aus ATC (RADAR)
Sun 01:16:54 AM -27.4695 152.1190 38° Northeast 398 458 21,100 -379 Descending Aus ATC (RADAR)
Sun 01:17:54 AM -27.4768 152.2412 94° East 398 458 20,700 -424 Descending Aus ATC (RADAR)
Sun 01:18:19 AM -27.5014 152.2829 124° Southeast 379 436 20,500 -500 Descending Aus ATC (RADAR)
Sun 01:18:54 AM -27.5315 152.3443 119° Southeast 376 433 20,200 -1,341 Descending Aus ATC (RADAR)
Sun 01:19:44 AM -27.5466 152.4469 99° East 390 449 18,600 -1,765 Descending Aus ATC (RADAR)
Sun 01:20:19 AM -27.5490 152.5200 92° East 390 449 17,700 -1,129 Descending Aus ATC (RADAR)
Sun 01:21:09 AM -27.5541 152.6163 93° East 356 410 17,000 -1,040 Descending Aus ATC (RADAR)
Sun 01:21:34 AM -27.5566 152.6626 93° East 348 400 16,400 -1,500 Descending Aus ATC (RADAR)
Sun 01:22:09 AM -27.5599 152.7265 93° East 342 394 15,500 -1,516 Descending Aus ATC (RADAR)
Sun 01:23:09 AM -27.5653 152.8333 93° East 325 374 14,000 -1,482 Descending Aus ATC (RADAR)
Sun 01:23:34 AM -27.5676 152.8765 93° East 320 368 13,400 -1,385 Descending Aus ATC (RADAR)
Sun 01:24:14 AM -27.5710 152.9441 93° East 317 365 12,500 -1,459 Descending Aus ATC (RADAR)
Sun 01:24:48 AM -27.5737 153.0025 93° East 311 358 11,600 -1,565 Descending Aus ATC (RADAR)
Sun 01:25:23 AM -27.5668 153.0604 82° East 307 353 10,700 -1,425 Descending Aus ATC (RADAR)
Sun 01:26:08 AM -27.5520 153.1326 77° East 308 354 9,700 -1,286 Descending Aus ATC (RADAR)
Sun 01:26:33 AM -27.5334 153.1671 59° Northeast 309 356 9,200 -1,200 Descending Aus ATC (RADAR)
Sun 01:27:08 AM -27.4907 153.1945 30° Northeast 302 348 8,500 -1,200 Descending Aus ATC (RADAR)
Sun 01:28:03 AM -27.4237 153.2384 30° Northeast 305 351 7,400 -1,059 Descending Aus ATC (RADAR)
Sun 01:28:33 AM -27.3879 153.2617 30° Northeast 297 342 7,000 -554 Descending Aus ATC (RADAR)
Sun 01:29:08 AM -27.3493 153.2861 29° Northeast 273 314 6,800 -600 Descending Aus ATC (RADAR)
Sun 01:29:53 AM -27.3026 153.3168 30° Northeast 257 296 6,200 -900 Descending Aus ATC (RADAR)
Sun 01:30:28 AM -27.2677 153.3347 24° Northeast 240 276 5,600 -1,111 Descending Aus ATC (RADAR)
Sun 01:31:14 AM -27.2282 153.3069 328° Northwest 218 251 4,700 -1,200 Descending Aus ATC (RADAR)
Sun 01:31:38 AM -27.2096 153.2897 321° Northwest 210 242 4,200 -1,119 Descending Aus ATC (RADAR)
Sun 01:32:13 AM -27.2091 153.2560 271° West 183 211 3,600 -835 Descending Aus ATC (RADAR)
Sun 01:33:33 AM -27.2447 153.2088 230° Southwest 161 185 2,600 -758 Descending Aus ATC (RADAR)
Sun 01:33:48 AM -27.2545 153.2030 208° Southwest 159 183 2,400 -600 Descending Aus ATC (RADAR)
Sun 01:34:23 AM -27.2774 153.1897 207° Southwest 160 184 2,100 -600 Descending Aus ATC (RADAR)
Sun 01:35:08 AM -27.3067 153.1735 206° Southwest 155 178 1,600 -759 Descending Aus ATC (RADAR)
Sun 01:35:42 AM -27.3276 153.1617 207° Southwest 144 166 1,100 -783 Descending Aus ATC (RADAR)
Sun 01:36:17 AM -27.3473 153.1505 207° Southwest 138 159 700 -771 Descending Aus ATC (RADAR)
Sun 01:36:52 AM -27.3671 153.1391 207° Southwest 136 157 200 -857 Descending Aus ATC (RADAR)

Login

Don't have an account? Register now (free) for customized features, flight alerts, and more!